createdAt,value
2018-06-14T00:02:28.431Z,98120.54
2018-06-14T00:04:56.830Z,98123.84
2018-06-14T00:07:25.246Z,98121.35
2018-06-14T00:09:53.679Z,98122.11
2018-06-14T00:12:22.092Z,98126.19
2018-06-14T00:14:50.552Z,98124.19
2018-06-14T00:17:19.130Z,98131.41
2018-06-14T00:19:47.498Z,98127.92
2018-06-14T00:22:15.960Z,98131.27
2018-06-14T00:24:44.424Z,98133.80
2018-06-14T00:27:12.891Z,98133.44
2018-06-14T00:29:41.596Z,98140.39
2018-06-14T00:32:10.024Z,98141.60
2018-06-14T00:34:38.920Z,98142.08
2018-06-14T00:37:07.470Z,98137.55
2018-06-14T00:39:36.593Z,98140.30
2018-06-14T00:42:05.426Z,98143.77
2018-06-14T00:44:34.677Z,98144.10
2018-06-14T00:47:03.172Z,98143.05
2018-06-14T00:49:31.585Z,98147.01
2018-06-14T00:52:00.023Z,98147.81
2018-06-14T00:54:28.496Z,98151.22
2018-06-14T00:57:08.142Z,98151.94
2018-06-14T00:59:36.606Z,98155.73
2018-06-14T01:02:05.029Z,98155.40
2018-06-14T01:04:33.500Z,98148.23
2018-06-14T01:07:02.115Z,98154.08
2018-06-14T01:09:30.735Z,98152.27
2018-06-14T01:11:59.183Z,98155.65
2018-06-14T01:14:27.611Z,98146.49
2018-06-14T01:16:56.028Z,98144.49
2018-06-14T01:19:24.535Z,98145.59
2018-06-14T01:21:52.942Z,98145.09
2018-06-14T01:24:21.391Z,98146.74
2018-06-14T01:26:49.961Z,98152.78
2018-06-14T01:29:18.407Z,98155.98
2018-06-14T01:31:46.880Z,98154.10
2018-06-14T01:34:15.380Z,98150.70
2018-06-14T01:36:43.867Z,98149.28
2018-06-14T01:39:12.300Z,98143.63
2018-06-14T01:41:40.809Z,98148.80
2018-06-14T01:44:09.184Z,98146.02
2018-06-14T01:46:37.600Z,98146.70
2018-06-14T01:49:06.359Z,98148.66
2018-06-14T01:51:34.800Z,98156.31
2018-06-14T01:54:03.272Z,98156.03
2018-06-14T01:56:31.672Z,98155.97
2018-06-14T01:59:00.551Z,98156.73
2018-06-14T02:01:29.059Z,98155.55
2018-06-14T02:03:57.524Z,98156.39
2018-06-14T02:06:25.992Z,98156.95
2018-06-14T02:08:54.449Z,98161.09
2018-06-14T02:11:22.869Z,98156.73
2018-06-14T02:13:51.331Z,98164.63
2018-06-14T02:16:19.774Z,98162.49
2018-06-14T02:18:48.243Z,98162.46
2018-06-14T02:21:16.698Z,98170.30
2018-06-14T02:23:45.148Z,98165.13
2018-06-14T02:26:13.654Z,98170.75
2018-06-14T02:28:42.100Z,98170.02
2018-06-14T02:31:10.572Z,98174.83
2018-06-14T02:33:38.984Z,98173.11
2018-06-14T02:36:07.835Z,98172.89
2018-06-14T02:38:36.324Z,98178.98
2018-06-14T02:41:04.926Z,98177.78
2018-06-14T02:43:33.624Z,98177.27
2018-06-14T02:46:02.053Z,98178.54
2018-06-14T02:48:30.540Z,98172.16
2018-06-14T02:50:58.999Z,98176.34
2018-06-14T02:53:27.425Z,98177.89
2018-06-14T02:55:55.896Z,98181.30
2018-06-14T02:58:24.301Z,98179.95
2018-06-14T03:00:52.769Z,98178.48
2018-06-14T03:03:21.294Z,98180.82
2018-06-14T03:05:49.847Z,98177.89
2018-06-14T03:08:18.260Z,98177.38
2018-06-14T03:10:46.692Z,98176.20
2018-06-14T03:13:15.147Z,98183.88
2018-06-14T03:15:43.599Z,98183.29
2018-06-14T03:18:12.294Z,98185.23
2018-06-14T03:20:40.701Z,98181.00
2018-06-14T03:23:09.184Z,98185.97
2018-06-14T03:25:37.659Z,98185.70
2018-06-14T03:28:06.125Z,98191.25
2018-06-14T03:30:34.640Z,98188.69
2018-06-14T03:33:03.089Z,98188.38
2018-06-14T03:35:31.510Z,98180.25
2018-06-14T03:38:00.139Z,98189.67
2018-06-14T03:40:28.832Z,98188.59
2018-06-14T03:42:57.316Z,98183.25
2018-06-14T03:45:30.482Z,98190.34
2018-06-14T03:47:58.955Z,98186.92
2018-06-14T03:50:27.420Z,98195.48
2018-06-14T03:52:55.854Z,98203.56
2018-06-14T03:55:24.298Z,98200.63
2018-06-14T03:57:53.000Z,98120.11
2018-06-14T04:00:21.453Z,98194.08
2018-06-14T04:02:49.892Z,98194.34
2018-06-14T04:05:18.331Z,98196.69
2018-06-14T04:07:46.743Z,98193.06
2018-06-14T04:10:15.169Z,98197.47
2018-06-14T04:12:43.590Z,98197.93
2018-06-14T04:15:12.209Z,98206.88
2018-06-14T04:17:40.677Z,98213.45
2018-06-14T04:20:09.091Z,98215.05
2018-06-14T04:22:37.728Z,98215.34
2018-06-14T04:25:06.193Z,98209.20
2018-06-14T04:27:34.622Z,98223.04
2018-06-14T04:30:03.102Z,98227.51
2018-06-14T04:32:32.408Z,98219.17
2018-06-14T04:35:01.175Z,98212.61
2018-06-14T04:37:29.607Z,98213.15
2018-06-14T04:39:58.028Z,98208.92
2018-06-14T04:42:26.507Z,98209.62
2018-06-14T04:44:54.919Z,98219.83
2018-06-14T04:47:23.339Z,98225.98
2018-06-14T04:49:51.779Z,98218.58
2018-06-14T04:52:20.216Z,98221.41
2018-06-14T04:54:49.112Z,98224.05
2018-06-14T04:57:18.599Z,98225.52
2018-06-14T04:59:47.024Z,98200.04
2018-06-14T05:02:16.059Z,98230.15
2018-06-14T05:04:44.779Z,98227.81
2018-06-14T05:07:13.275Z,98225.03
2018-06-14T05:09:41.676Z,98231.08
2018-06-14T05:12:10.460Z,98235.86
2018-06-14T05:14:38.991Z,98240.77
2018-06-14T05:17:07.637Z,98230.03
2018-06-14T05:19:36.110Z,98236.02
2018-06-14T05:22:04.555Z,98237.48
2018-06-14T05:24:33.021Z,98239.14
2018-06-14T05:27:01.758Z,98237.71
2018-06-14T05:29:30.175Z,98238.98
2018-06-14T05:31:58.668Z,98240.75
2018-06-14T05:34:27.083Z,98250.73
2018-06-14T05:36:55.499Z,98249.61
2018-06-14T05:39:23.947Z,98255.45
2018-06-14T05:41:52.408Z,98251.27
2018-06-14T05:44:20.854Z,98253.73
2018-06-14T05:46:49.502Z,98254.25
2018-06-14T05:49:17.964Z,98254.69
2018-06-14T05:51:46.394Z,98256.81
2018-06-14T05:54:14.835Z,98250.19
2018-06-14T05:56:43.444Z,98255.19
2018-06-14T05:59:11.948Z,98257.23
2018-06-14T06:01:40.405Z,98254.70
2018-06-14T06:04:08.832Z,98246.94
2018-06-14T06:06:37.404Z,98255.28
2018-06-14T06:09:09.086Z,98256.75
2018-06-14T06:11:37.667Z,98253.95
2018-06-14T06:14:06.121Z,98254.94
2018-06-14T06:16:34.569Z,98255.72
2018-06-14T06:19:02.974Z,98261.98
2018-06-14T06:21:31.683Z,98257.74
2018-06-14T06:24:00.147Z,98266.84
2018-06-14T06:26:28.568Z,98250.51
2018-06-14T06:28:56.948Z,98263.70
2018-06-14T06:31:25.541Z,98264.14
2018-06-14T06:33:54.239Z,98263.27
2018-06-14T06:36:22.690Z,98262.14
2018-06-14T06:38:51.138Z,98262.95
2018-06-14T06:41:19.564Z,98269.72
2018-06-14T06:43:47.997Z,98266.13
2018-06-14T06:46:16.461Z,98270.73
2018-06-14T06:48:45.115Z,98266.20
2018-06-14T06:51:13.534Z,98266.48
2018-06-14T06:53:42.164Z,98260.06
2018-06-14T06:56:10.620Z,98263.94
2018-06-14T06:58:39.088Z,98262.17
2018-06-14T07:01:07.543Z,98256.11
2018-06-14T07:03:36.071Z,98252.33
2018-06-14T07:06:04.590Z,98248.39
2018-06-14T07:08:32.976Z,98253.16
2018-06-14T07:11:01.416Z,98247.13
2018-06-14T07:13:30.327Z,98253.44
2018-06-14T07:15:58.815Z,98252.72
2018-06-14T07:18:27.261Z,98256.13
2018-06-14T07:20:55.903Z,98258.80
2018-06-14T07:23:24.333Z,98253.56
2018-06-14T07:25:52.947Z,98262.00
2018-06-14T07:28:21.390Z,98258.70
2018-06-14T07:30:49.866Z,98262.41
2018-06-14T07:34:47.693Z,98260.06
2018-06-14T07:37:16.160Z,98263.25
2018-06-14T07:39:44.640Z,98263.04
2018-06-14T07:42:13.097Z,98262.61
2018-06-14T07:44:41.499Z,98271.41
2018-06-14T07:47:09.948Z,98267.70
2018-06-14T07:49:38.371Z,98274.06
2018-06-14T07:52:06.774Z,98275.98
2018-06-14T07:54:35.198Z,98275.39
2018-06-14T07:57:03.647Z,98279.91
2018-06-14T07:59:32.125Z,98283.97
2018-06-14T08:03:29.994Z,98286.47
2018-06-14T08:05:58.415Z,98285.84
2018-06-14T08:08:26.817Z,98283.09
2018-06-14T08:10:55.224Z,98280.50
2018-06-14T08:13:23.644Z,98278.40
2018-06-14T08:15:52.104Z,98279.34
2018-06-14T08:18:20.563Z,98283.97
2018-06-14T08:20:48.979Z,98284.08
2018-06-14T08:23:17.398Z,98285.73
2018-06-14T08:25:45.823Z,98286.66
2018-06-14T08:28:14.234Z,98279.25
2018-06-14T08:30:42.916Z,98287.14
2018-06-14T08:33:11.572Z,98286.73
2018-06-14T08:35:40.020Z,98286.70
2018-06-14T08:38:08.544Z,98289.03
2018-06-14T08:40:37.029Z,98285.44
2018-06-14T08:43:05.479Z,98281.20
2018-06-14T08:45:33.879Z,98285.19
2018-06-14T08:48:02.293Z,98284.34
2018-06-14T08:52:00.102Z,98289.31
2018-06-14T08:54:28.535Z,98281.06
2018-06-14T08:56:57.279Z,98286.48
2018-06-14T08:59:25.679Z,98282.31
2018-06-14T09:01:54.134Z,98286.08
2018-06-14T09:04:22.534Z,98287.42
2018-06-14T09:06:50.974Z,98284.36
2018-06-14T09:09:19.377Z,98279.61
2018-06-14T09:11:47.780Z,98290.88
2018-06-14T09:14:16.342Z,98287.47
2018-06-14T09:16:44.780Z,98290.44
2018-06-14T09:19:13.244Z,98289.91
2018-06-14T09:21:41.739Z,98292.66
2018-06-14T09:24:10.188Z,98291.27
2018-06-14T09:26:39.020Z,98300.11
2018-06-14T09:29:07.455Z,98288.63
2018-06-14T09:31:35.880Z,98288.30
2018-06-14T09:34:04.372Z,98289.61
2018-06-14T09:36:33.862Z,98285.42
2018-06-14T09:39:02.851Z,98292.36
2018-06-14T09:41:31.302Z,98278.58
2018-06-14T09:43:59.684Z,98285.25
2018-06-14T09:46:28.112Z,98289.25
2018-06-14T09:49:01.883Z,98293.70
2018-06-14T09:51:30.295Z,98289.19
2018-06-14T09:53:58.980Z,98299.71
2018-06-14T09:56:27.659Z,98304.86
2018-06-14T09:58:56.072Z,98304.07
2018-06-14T10:01:24.525Z,98303.07
2018-06-14T10:03:52.949Z,98300.00
2018-06-14T10:06:21.364Z,98296.09
2018-06-14T10:08:49.754Z,98305.19
2018-06-14T10:11:18.182Z,98294.63
2018-06-14T10:13:46.550Z,98291.16
2018-06-14T10:16:15.499Z,98292.36
2018-06-14T10:18:43.972Z,98296.58
2018-06-14T10:21:12.695Z,98293.55
2018-06-14T10:23:41.112Z,98295.95
2018-06-14T10:26:09.769Z,98287.98
2018-06-14T10:28:38.168Z,98297.47
2018-06-14T10:31:06.783Z,98291.86
2018-06-14T10:33:35.159Z,98287.59
2018-06-14T10:36:03.644Z,98283.41
2018-06-14T10:38:32.133Z,98284.97
2018-06-14T10:41:00.555Z,98286.61
2018-06-14T10:43:28.997Z,98282.94
2018-06-14T10:45:57.391Z,98287.23
2018-06-14T10:48:26.044Z,98278.47
2018-06-14T10:50:54.782Z,98278.34
2018-06-14T10:53:23.188Z,98276.16
2018-06-14T10:55:51.620Z,98274.93
2018-06-14T10:58:20.037Z,98275.72
2018-06-14T11:00:48.768Z,98276.13
2018-06-14T11:03:17.197Z,98277.59
2018-06-14T11:05:45.626Z,98271.00
2018-06-14T11:08:14.047Z,98268.44
2018-06-14T11:10:42.439Z,98260.09
2018-06-14T11:13:10.878Z,98265.45
2018-06-14T11:15:39.621Z,98260.77
2018-06-14T11:18:08.049Z,98261.80
2018-06-14T11:20:36.456Z,98264.12
2018-06-14T11:23:04.886Z,98262.97
2018-06-14T11:25:33.330Z,98257.55
2018-06-14T11:28:01.726Z,98258.05
2018-06-14T11:30:30.395Z,98256.91
2018-06-14T11:32:58.794Z,98250.72
2018-06-14T11:35:27.211Z,98252.31
2018-06-14T11:37:55.690Z,98250.96
2018-06-14T11:40:24.111Z,98243.83
2018-06-14T11:42:52.575Z,98241.09
2018-06-14T11:45:20.987Z,98231.97
2018-06-14T11:47:49.419Z,98236.59
2018-06-14T11:50:17.848Z,98233.78
2018-06-14T11:52:46.256Z,98221.35
2018-06-14T11:55:14.695Z,98222.94
2018-06-14T11:57:43.163Z,98221.23
2018-06-14T12:00:11.995Z,98226.03
2018-06-14T12:02:40.696Z,98220.62
2018-06-14T12:05:09.098Z,98219.86
2018-06-14T12:07:37.541Z,98214.81
2018-06-14T12:10:06.139Z,98219.55
2018-06-14T12:12:34.601Z,98216.87
2018-06-14T12:15:03.072Z,98209.73
2018-06-14T12:17:31.437Z,98211.72
2018-06-14T12:19:59.855Z,98212.63
2018-06-14T12:22:28.400Z,98213.38
2018-06-14T12:24:56.818Z,98202.05
2018-06-14T12:27:25.447Z,98209.78
2018-06-14T12:29:53.839Z,98203.25
2018-06-14T12:32:22.220Z,98202.40
2018-06-14T12:34:50.752Z,98196.80
2018-06-14T12:37:19.163Z,98196.73
2018-06-14T12:39:47.587Z,98187.61
2018-06-14T12:42:16.092Z,98184.67
2018-06-14T12:44:44.512Z,98182.09
2018-06-14T12:47:13.117Z,98183.02
2018-06-14T12:49:41.549Z,98182.35
2018-06-14T12:52:09.948Z,98178.77
2018-06-14T12:54:38.594Z,98180.06
2018-06-14T12:57:06.980Z,98173.27
2018-06-14T12:59:35.392Z,98174.23
2018-06-14T13:02:03.808Z,98175.12
2018-06-14T13:04:32.406Z,98175.16
2018-06-14T13:07:00.838Z,98175.30
2018-06-14T13:09:29.238Z,98170.76
2018-06-14T13:11:57.683Z,98179.84
2018-06-14T13:14:26.052Z,98175.34
2018-06-14T13:16:54.483Z,98170.48
2018-06-14T13:19:22.867Z,98174.56
2018-06-14T13:21:51.280Z,98168.66
2018-06-14T13:24:19.680Z,98172.91
2018-06-14T13:26:48.181Z,98175.03
2018-06-14T13:29:16.628Z,98162.05
2018-06-14T13:31:45.040Z,98164.84
2018-06-14T13:34:13.448Z,98160.61
2018-06-14T13:36:42.204Z,98164.34
2018-06-14T13:39:10.827Z,98158.23
2018-06-14T13:41:39.331Z,98159.36
2018-06-14T13:44:07.829Z,98156.37
2018-06-14T13:46:40.064Z,98150.78
2018-06-14T13:49:08.888Z,98149.72
2018-06-14T13:51:37.439Z,98147.31
2018-06-14T13:54:05.864Z,98152.29
2018-06-14T13:56:34.525Z,98151.66
2018-06-14T13:59:03.194Z,98147.55
2018-06-14T14:01:31.623Z,98163.50
2018-06-14T14:04:00.420Z,98145.87
2018-06-14T14:06:29.292Z,98146.03
2018-06-14T14:08:57.961Z,98153.08
2018-06-14T14:11:26.386Z,98142.43
2018-06-14T14:13:55.041Z,98141.52
2018-06-14T14:16:23.450Z,98135.78
2018-06-14T14:18:52.091Z,98132.45
2018-06-14T14:21:20.494Z,98139.62
2018-06-14T14:23:48.950Z,98141.94
2018-06-14T14:26:17.338Z,98135.03
2018-06-14T14:28:45.970Z,98129.53
2018-06-14T14:31:14.675Z,98128.08
2018-06-14T14:33:43.111Z,98130.59
2018-06-14T14:36:11.505Z,98131.02
2018-06-14T14:38:39.992Z,98127.94
2018-06-14T14:41:08.578Z,98130.00
2018-06-14T14:43:36.984Z,98123.95
2018-06-14T14:46:05.558Z,98128.55
2018-06-14T14:48:34.243Z,98127.66
2018-06-14T14:51:02.847Z,98127.38
2018-06-14T14:53:31.314Z,98118.00
2018-06-14T14:55:59.760Z,98116.66
2018-06-14T14:58:28.217Z,98106.19
2018-06-14T15:00:56.633Z,98115.95
2018-06-14T15:03:25.089Z,98112.41
2018-06-14T15:05:53.511Z,98119.69
2018-06-14T15:08:21.965Z,98120.39
2018-06-14T15:10:50.391Z,98114.08
2018-06-14T15:13:18.791Z,98124.16
2018-06-14T15:15:47.395Z,98121.83
2018-06-14T15:18:15.846Z,98122.11
2018-06-14T15:20:44.402Z,98118.25
2018-06-14T15:23:12.868Z,98124.06
2018-06-14T15:25:41.268Z,98127.55
2018-06-14T15:28:09.736Z,98125.77
2018-06-14T15:30:38.120Z,98126.14
2018-06-14T15:33:06.599Z,98132.17
2018-06-14T15:35:35.091Z,98129.86
2018-06-14T15:38:03.492Z,98133.70
2018-06-14T15:40:32.303Z,98129.31
2018-06-14T15:43:00.764Z,98129.92
2018-06-14T15:45:29.188Z,98128.41
2018-06-14T15:47:58.251Z,98126.73
2018-06-14T15:50:26.724Z,98125.14
2018-06-14T15:52:55.368Z,98120.48
2018-06-14T15:55:33.777Z,98124.63
2018-06-14T15:58:02.245Z,98104.01
2018-06-14T16:00:30.655Z,98116.72
2018-06-14T16:02:59.062Z,98118.63
2018-06-14T16:05:27.649Z,98120.73
2018-06-14T16:07:56.075Z,98107.34
2018-06-14T16:10:24.470Z,98105.52
2018-06-14T16:12:52.888Z,98106.92
2018-06-14T16:15:21.303Z,98103.20
2018-06-14T16:17:49.724Z,98111.13
2018-06-14T16:20:18.197Z,98123.44
2018-06-14T16:22:46.622Z,98117.84
2018-06-14T16:25:15.051Z,98121.33
2018-06-14T16:27:43.526Z,98124.03
2018-06-14T16:30:11.984Z,98126.62
2018-06-14T16:32:40.711Z,98121.75
2018-06-14T16:35:09.181Z,98125.59
2018-06-14T16:37:37.647Z,98129.18
2018-06-14T16:40:06.114Z,98125.91
2018-06-14T16:42:34.873Z,98125.26
2018-06-14T16:45:03.349Z,98132.09
2018-06-14T16:47:31.860Z,98127.39
2018-06-14T16:50:00.276Z,98130.96
2018-06-14T16:52:28.755Z,98129.98
2018-06-14T16:54:57.221Z,98133.16
2018-06-14T16:57:25.638Z,98134.70
2018-06-14T16:59:54.136Z,98126.09
2018-06-14T17:02:22.783Z,98129.28
2018-06-14T17:04:51.499Z,98127.80
2018-06-14T17:07:19.916Z,98127.55
2018-06-14T17:09:48.970Z,98117.31
2018-06-14T17:12:17.440Z,98121.97
2018-06-14T17:14:45.847Z,98121.13
2018-06-14T17:17:14.505Z,98121.97
2018-06-14T17:19:43.009Z,98130.95
2018-06-14T17:22:11.469Z,98133.48
2018-06-14T17:24:40.024Z,98133.29
2018-06-14T17:27:08.997Z,98136.66
2018-06-14T17:29:37.502Z,98144.51
2018-06-14T17:32:05.958Z,98145.65
2018-06-14T17:34:34.385Z,98143.48
2018-06-14T17:37:02.822Z,98145.87
2018-06-14T17:39:31.890Z,98147.97
2018-06-14T17:42:00.477Z,98150.50
2018-06-14T17:44:29.045Z,98143.47
2018-06-14T17:46:57.707Z,98142.45
2018-06-14T17:49:26.107Z,98145.64
2018-06-14T17:51:54.511Z,98147.97
2018-06-14T17:54:22.909Z,98147.62
2018-06-14T17:56:51.604Z,98157.81
2018-06-14T17:59:19.983Z,98157.35
2018-06-14T18:01:48.620Z,98158.28
2018-06-14T18:04:17.282Z,98163.31
2018-06-14T18:06:46.022Z,98164.84
2018-06-14T18:09:14.455Z,98163.64
2018-06-14T18:11:42.868Z,98165.94
2018-06-14T18:14:11.444Z,98167.42
2018-06-14T18:16:40.124Z,98169.16
2018-06-14T18:19:08.719Z,98166.32
2018-06-14T18:21:37.203Z,98164.50
2018-06-14T18:24:05.655Z,98161.66
2018-06-14T18:26:34.090Z,98160.65
2018-06-14T18:29:02.562Z,98163.34
2018-06-14T18:31:31.330Z,98163.30
2018-06-14T18:33:59.768Z,98166.99
2018-06-14T18:36:28.431Z,98167.64
2018-06-14T18:38:56.883Z,98168.54
2018-06-14T18:41:25.516Z,98172.20
2018-06-14T18:43:54.112Z,98168.06
2018-06-14T18:46:22.511Z,98170.44
2018-06-14T18:48:51.270Z,98171.84
2018-06-14T18:51:19.702Z,98170.13
2018-06-14T18:53:48.095Z,98184.22
2018-06-14T18:56:16.664Z,98186.51
2018-06-14T18:58:45.102Z,98186.16
2018-06-14T19:01:13.580Z,98190.27
2018-06-14T19:03:42.101Z,98188.80
2018-06-14T19:06:10.498Z,98188.98
2018-06-14T19:08:39.055Z,98188.33
2018-06-14T19:11:07.807Z,98200.31
2018-06-14T19:13:36.252Z,98201.59
2018-06-14T19:16:04.708Z,98211.95
2018-06-14T19:18:33.137Z,98205.73
2018-06-14T19:21:01.603Z,98209.67
2018-06-14T19:23:30.791Z,98210.93
2018-06-14T19:25:59.250Z,98219.34
2018-06-14T19:28:27.714Z,98225.79
2018-06-14T19:30:56.126Z,98228.19
2018-06-14T19:33:24.918Z,98229.45
2018-06-14T19:35:53.319Z,98230.05
2018-06-14T19:38:21.766Z,98239.45
2018-06-14T19:40:50.164Z,98236.29
2018-06-14T19:43:18.566Z,98244.80
2018-06-14T19:45:47.032Z,98241.70
2018-06-14T19:48:15.411Z,98245.42
2018-06-14T19:50:43.842Z,98241.35
2018-06-14T19:53:12.252Z,98240.77
2018-06-14T19:55:40.679Z,98246.19
2018-06-14T19:58:09.161Z,98249.63
2018-06-14T20:00:37.572Z,98250.47
2018-06-14T20:03:06.513Z,98252.68
2018-06-14T20:05:34.955Z,98252.58
2018-06-14T20:08:03.380Z,98257.41
2018-06-14T20:10:31.812Z,98248.50
2018-06-14T20:13:00.215Z,98258.19
2018-06-14T20:15:28.916Z,98258.93
2018-06-14T20:17:57.348Z,98261.59
2018-06-14T20:20:25.798Z,98263.20
2018-06-14T20:22:54.520Z,98264.83
2018-06-14T20:25:23.546Z,98264.66
2018-06-14T20:27:52.008Z,98264.15
2018-06-14T20:30:20.410Z,98271.63
2018-06-14T20:32:49.004Z,98270.72
2018-06-14T20:35:17.454Z,98278.39
2018-06-14T20:37:45.887Z,98276.20
2018-06-14T20:40:14.315Z,98268.84
2018-06-14T20:42:42.772Z,98268.78
2018-06-14T20:45:11.268Z,98275.48
2018-06-14T20:47:39.715Z,98273.92
2018-06-14T20:50:08.412Z,98275.34
2018-06-14T20:52:36.811Z,98282.54
2018-06-14T20:55:05.371Z,98287.78
2018-06-14T20:57:34.850Z,98293.24
2018-06-14T21:00:03.560Z,98293.72
2018-06-14T21:02:32.684Z,98300.77
2018-06-14T21:05:01.603Z,98294.11
2018-06-14T21:07:30.147Z,98296.56
2018-06-14T21:09:58.596Z,98304.62
2018-06-14T21:12:27.681Z,98295.48
2018-06-14T21:14:56.094Z,98292.98
2018-06-14T21:17:24.610Z,98292.89
2018-06-14T21:19:53.260Z,98293.94
2018-06-14T21:22:21.984Z,98293.04
2018-06-14T21:24:50.491Z,98292.55
2018-06-14T21:27:18.957Z,98294.21
2018-06-14T21:29:47.399Z,98294.80
2018-06-14T21:32:15.829Z,98293.64
2018-06-14T21:34:44.294Z,98297.15
2018-06-14T21:37:12.704Z,98294.16
2018-06-14T21:39:41.095Z,98296.94
2018-06-14T21:42:09.576Z,98293.08
2018-06-14T21:44:38.038Z,98296.43
2018-06-14T21:47:07.551Z,98298.35
2018-06-14T21:49:36.645Z,98294.70
2018-06-14T21:52:05.172Z,98297.78
2018-06-14T21:54:33.763Z,98298.83
2018-06-14T21:57:02.294Z,98297.56
2018-06-14T21:59:30.794Z,98304.39
2018-06-14T22:01:59.199Z,98301.83
2018-06-14T22:04:27.628Z,98300.85
2018-06-14T22:06:56.138Z,98299.69
2018-06-14T22:09:24.556Z,98305.40
2018-06-14T22:11:53.084Z,98311.28
2018-06-14T22:14:21.668Z,98302.55
2018-06-14T22:16:50.091Z,98307.78
2018-06-14T22:19:18.527Z,98302.77
2018-06-14T22:21:46.947Z,98300.53
2018-06-14T22:24:15.381Z,98294.03
2018-06-14T22:26:43.807Z,98295.80
2018-06-14T22:29:12.234Z,98294.09
2018-06-14T22:31:40.659Z,98299.69
2018-06-14T22:36:17.123Z,98301.86
2018-06-14T22:38:46.237Z,98311.34
2018-06-14T22:41:14.652Z,98308.54
2018-06-14T22:43:43.240Z,98304.02
2018-06-14T22:46:11.696Z,98301.85
2018-06-14T22:48:40.152Z,98301.02
2018-06-14T22:51:19.640Z,98295.63
2018-06-14T22:53:48.620Z,98295.16
2018-06-14T22:56:17.331Z,98289.98
2018-06-14T22:58:46.251Z,98294.99
2018-06-14T23:01:39.614Z,98295.63
2018-06-14T23:04:09.458Z,98299.39
2018-06-14T23:06:37.880Z,98304.76
2018-06-14T23:09:13.690Z,98303.58
2018-06-14T23:11:42.517Z,98299.52
2018-06-14T23:14:10.979Z,98307.08
2018-06-14T23:16:39.398Z,98295.27
2018-06-14T23:19:08.306Z,98301.26
2018-06-14T23:21:36.732Z,98294.23
2018-06-14T23:24:05.195Z,98293.76
2018-06-14T23:26:33.678Z,98287.80
2018-06-14T23:29:02.128Z,98295.29
2018-06-14T23:31:30.599Z,98293.67
2018-06-14T23:33:59.036Z,98289.70
2018-06-14T23:36:27.728Z,98288.80
2018-06-14T23:38:56.173Z,98288.23
2018-06-14T23:41:24.591Z,98282.38
2018-06-14T23:43:53.104Z,98283.23
2018-06-14T23:46:21.552Z,98282.45
2018-06-14T23:48:49.979Z,98280.08
2018-06-14T23:51:18.406Z,98276.66
2018-06-14T23:53:46.804Z,98276.30
2018-06-14T23:56:15.292Z,98277.56
2018-06-14T23:58:43.999Z,98279.59
